sensor_id;sensor_type;location;lat;lon;timestamp;pressure;altitude;pressure_sealevel;temperature;humidity
54270;BME280;40181;51.560;13.000;2023-05-02T00:00:58;100497.34;;;12.81;73.81
54270;BME280;40181;51.560;13.000;2023-05-02T00:03:29;100486.88;;;13.23;72.13
54270;BME280;40181;51.560;13.000;2023-05-02T00:05:58;100480.69;;;13.10;72.95
54270;BME280;40181;51.560;13.000;2023-05-02T00:08:28;100491.19;;;12.81;74.20
54270;BME280;40181;51.560;13.000;2023-05-02T00:10:57;100497.34;;;12.81;74.54
54270;BME280;40181;51.560;13.000;2023-05-02T00:13:28;100486.88;;;13.16;73.37
54270;BME280;40181;51.560;13.000;2023-05-02T00:15:57;100487.75;;;13.14;73.53
54270;BME280;40181;51.560;13.000;2023-05-02T00:18:26;100486.84;;;13.05;74.07
54270;BME280;40181;51.560;13.000;2023-05-02T00:20:55;100476.25;;;12.83;75.14
54270;BME280;40181;51.560;13.000;2023-05-02T00:23:24;100484.22;;;13.06;74.28
54270;BME280;40181;51.560;13.000;2023-05-02T00:25:53;100496.47;;;12.85;75.73
54270;BME280;40181;51.560;13.000;2023-05-02T00:28:25;100473.63;;;12.94;75.23
54270;BME280;40181;51.560;13.000;2023-05-02T00:30:54;100483.28;;;12.87;75.47
54270;BME280;40181;51.560;13.000;2023-05-02T00:33:23;100480.69;;;12.93;75.33
54270;BME280;40181;51.560;13.000;2023-05-02T00:35:52;100479.75;;;12.79;76.01
54270;BME280;40181;51.560;13.000;2023-05-02T00:38:21;100485.00;;;12.66;75.98
54270;BME280;40181;51.560;13.000;2023-05-02T00:40:50;100484.16;;;12.89;75.29
54270;BME280;40181;51.560;13.000;2023-05-02T00:43:20;100488.41;;;12.43;77.21
54270;BME280;40181;51.560;13.000;2023-05-02T00:45:52;100490.31;;;12.79;75.55
54270;BME280;40181;51.560;13.000;2023-05-02T00:48:21;100484.22;;;12.97;74.84
54270;BME280;40181;51.560;13.000;2023-05-02T00:50:50;100480.69;;;12.93;75.17
54270;BME280;40181;51.560;13.000;2023-05-02T00:53:19;100481.56;;;12.95;74.82
54270;BME280;40181;51.560;13.000;2023-05-02T00:55:48;100484.19;;;12.92;75.13
54270;BME280;40181;51.560;13.000;2023-05-02T00:58:19;100483.28;;;12.90;75.74
54270;BME280;40181;51.560;13.000;2023-05-02T01:01:00;100489.25;;;12.41;77.34
54270;BME280;40181;51.560;13.000;2023-05-02T01:03:41;100496.38;;;12.54;76.74
54270;BME280;40181;51.560;13.000;2023-05-02T01:06:27;100496.31;;;12.47;77.29
54270;BME280;40181;51.560;13.000;2023-05-02T01:09:03;100491.00;;;12.37;78.00
54270;BME280;40181;51.560;13.000;2023-05-02T01:11:46;100493.59;;;12.26;79.10
54270;BME280;40181;51.560;13.000;2023-05-02T01:14:20;100505.16;;;12.61;77.63
54270;BME280;40181;51.560;13.000;2023-05-02T01:16:52;100498.94;;;12.47;78.07
54270;BME280;40181;51.560;13.000;2023-05-02T01:19:28;100504.13;;;12.28;79.15
54270;BME280;40181;51.560;13.000;2023-05-02T01:22:04;100509.50;;;12.48;77.94
54270;BME280;40181;51.560;13.000;2023-05-02T01:24:39;100512.97;;;12.35;78.82
54270;BME280;40181;51.560;13.000;2023-05-02T01:27:20;100506.91;;;12.54;78.06
54270;BME280;40181;51.560;13.000;2023-05-02T01:29:59;100514.69;;;12.26;79.48
54270;BME280;40181;51.560;13.000;2023-05-02T01:32:32;100509.53;;;12.56;77.44
54270;BME280;40181;51.560;13.000;2023-05-02T01:35:03;100518.38;;;12.66;77.00
54270;BME280;40181;51.560;13.000;2023-05-02T01:37:35;100509.50;;;12.45;78.48
54270;BME280;40181;51.560;13.000;2023-05-02T01:40:08;100511.31;;;12.57;77.43
54270;BME280;40181;51.560;13.000;2023-05-02T01:42:38;100511.31;;;12.57;78.04
54270;BME280;40181;51.560;13.000;2023-05-02T01:45:11;100509.47;;;12.39;78.32
54270;BME280;40181;51.560;13.000;2023-05-02T01:47:42;100523.63;;;12.58;77.73
54270;BME280;40181;51.560;13.000;2023-05-02T01:50:16;100529.72;;;12.54;77.75
54270;BME280;40181;51.560;13.000;2023-05-02T01:52:50;100517.28;;;12.28;79.34
54270;BME280;40181;51.560;13.000;2023-05-02T01:55:21;100525.84;;;11.97;80.59
54270;BME280;40181;51.560;13.000;2023-05-02T01:57:53;100530.41;;;12.18;79.98
54270;BME280;40181;51.560;13.000;2023-05-02T02:00:28;100540.06;;;12.20;80.12
54270;BME280;40181;51.560;13.000;2023-05-02T02:02:58;100544.13;;;11.77;83.59
54270;BME280;40181;51.560;13.000;2023-05-02T02:05:28;100540.53;;;11.67;84.50
54270;BME280;40181;51.560;13.000;2023-05-02T02:07:57;100537.13;;;11.79;83.52
54270;BME280;40181;51.560;13.000;2023-05-02T02:10:28;100554.69;;;11.82;82.90
54270;BME280;40181;51.560;13.000;2023-05-02T02:13:05;100544.22;;;11.86;82.46
54270;BME280;40181;51.560;13.000;2023-05-02T02:15:44;100553.03;;;11.96;81.92
54270;BME280;40181;51.560;13.000;2023-05-02T02:18:19;100552.09;;;11.88;81.67
54270;BME280;40181;51.560;13.000;2023-05-02T02:20:49;100551.22;;;11.84;81.16
54270;BME280;40181;51.560;13.000;2023-05-02T02:23:20;100557.16;;;11.65;81.65
54270;BME280;40181;51.560;13.000;2023-05-02T02:25:53;100549.34;;;11.71;80.87
54270;BME280;40181;51.560;13.000;2023-05-02T02:28:23;100561.84;;;11.97;78.97
54270;BME280;40181;51.560;13.000;2023-05-02T02:30:55;100567.78;;;11.74;79.40
54270;BME280;40181;51.560;13.000;2023-05-02T02:33:29;100556.41;;;11.75;79.28
54270;BME280;40181;51.560;13.000;2023-05-02T02:36:05;100566.88;;;11.69;79.23
54270;BME280;40181;51.560;13.000;2023-05-02T02:38:43;100564.97;;;11.55;79.49
54270;BME280;40181;51.560;13.000;2023-05-02T02:41:18;100569.31;;;11.48;79.75
54270;BME280;40181;51.560;13.000;2023-05-02T02:43:59;100564.22;;;11.67;78.74
54270;BME280;40181;51.560;13.000;2023-05-02T02:46:44;100580.00;;;11.67;77.86
54270;BME280;40181;51.560;13.000;2023-05-02T02:49:22;100579.22;;;11.76;77.75
54270;BME280;40181;51.560;13.000;2023-05-02T02:52:04;100594.09;;;11.72;77.22
54270;BME280;40181;51.560;13.000;2023-05-02T02:54:43;100587.13;;;11.77;76.99
54270;BME280;40181;51.560;13.000;2023-05-02T02:57:20;100594.88;;;11.62;77.24
54270;BME280;40181;51.560;13.000;2023-05-02T02:59:58;100601.06;;;11.70;76.91
54270;BME280;40181;51.560;13.000;2023-05-02T03:02:46;100607.19;;;11.63;76.85
54270;BME280;40181;51.560;13.000;2023-05-02T03:05:16;100618.56;;;11.63;77.21
54270;BME280;40181;51.560;13.000;2023-05-02T03:07:45;100618.47;;;11.53;76.57
54270;BME280;40181;51.560;13.000;2023-05-02T03:10:15;100620.31;;;11.61;77.01
54270;BME280;40181;51.560;13.000;2023-05-02T03:12:44;100625.41;;;11.44;76.75
54270;BME280;40181;51.560;13.000;2023-05-02T03:15:23;100628.59;;;11.17;77.63
54270;BME280;40181;51.560;13.000;2023-05-02T03:18:20;100644.44;;;11.25;76.93
54270;BME280;40181;51.560;13.000;2023-05-02T03:20:49;100644.50;;;11.28;77.00
54270;BME280;40181;51.560;13.000;2023-05-02T03:23:18;100640.25;;;11.39;77.02
54270;BME280;40181;51.560;13.000;2023-05-02T03:25:47;100646.97;;;11.15;77.86
54270;BME280;40181;51.560;13.000;2023-05-02T03:28:16;100644.38;;;11.20;77.28
54270;BME280;40181;51.560;13.000;2023-05-02T03:30:45;100656.66;;;11.19;76.87
54270;BME280;40181;51.560;13.000;2023-05-02T03:33:14;100647.88;;;11.19;76.81
54270;BME280;40181;51.560;13.000;2023-05-02T03:35:47;100650.72;;;11.38;75.96
54270;BME280;40181;51.560;13.000;2023-05-02T03:38:16;100655.94;;;11.33;76.34
54270;BME280;40181;51.560;13.000;2023-05-02T03:40:45;100649.53;;;11.11;76.54
54270;BME280;40181;51.560;13.000;2023-05-02T03:43:14;100651.59;;;11.35;75.42
54270;BME280;40181;51.560;13.000;2023-05-02T03:45:43;100653.03;;;11.10;76.18
54270;BME280;40181;51.560;13.000;2023-05-02T03:48:12;100659.44;;;11.32;74.79
54270;BME280;40181;51.560;13.000;2023-05-02T03:50:41;100664.81;;;11.41;74.54
54270;BME280;40181;51.560;13.000;2023-05-02T03:53:13;100661.38;;;11.45;74.02
54270;BME280;40181;51.560;13.000;2023-05-02T03:55:43;100663.13;;;11.46;73.61
54270;BME280;40181;51.560;13.000;2023-05-02T03:58:12;100662.41;;;11.61;73.00
54270;BME280;40181;51.560;13.000;2023-05-02T04:00:41;100669.53;;;11.72;72.53
54270;BME280;40181;51.560;13.000;2023-05-02T04:03:10;100666.06;;;11.76;72.19
54270;BME280;40181;51.560;13.000;2023-05-02T04:05:39;100663.44;;;11.77;72.00
54270;BME280;40181;51.560;13.000;2023-05-02T04:08:08;100674.75;;;11.70;72.39
54270;BME280;40181;51.560;13.000;2023-05-02T04:10:40;100681.00;;;11.77;72.19
54270;BME280;40181;51.560;13.000;2023-05-02T04:13:09;100678.34;;;11.75;72.05
54270;BME280;40181;51.560;13.000;2023-05-02T04:15:38;100678.41;;;11.82;71.96
54270;BME280;40181;51.560;13.000;2023-05-02T04:18:07;100674.94;;;11.86;71.55
54270;BME280;40181;51.560;13.000;2023-05-02T04:20:36;100683.34;;;11.52;73.71
54270;BME280;40181;51.560;13.000;2023-05-02T04:23:05;100693.13;;;11.64;73.54
54270;BME280;40181;51.560;13.000;2023-05-02T04:25:34;100696.13;;;11.23;74.77
54270;BME280;40181;51.560;13.000;2023-05-02T04:28:06;100700.06;;;11.56;75.00
54270;BME280;40181;51.560;13.000;2023-05-02T04:30:35;100703.72;;;11.70;74.90
54270;BME280;40181;51.560;13.000;2023-05-02T04:33:04;100714.28;;;11.73;74.50
54270;BME280;40181;51.560;13.000;2023-05-02T04:35:33;100727.09;;;11.44;75.36
54270;BME280;40181;51.560;13.000;2023-05-02T04:38:02;100721.97;;;11.56;75.41
54270;BME280;40181;51.560;13.000;2023-05-02T04:40:32;100730.72;;;11.52;75.76
54270;BME280;40181;51.560;13.000;2023-05-02T04:43:01;100734.25;;;11.53;75.50
54270;BME280;40181;51.560;13.000;2023-05-02T04:45:33;100729.59;;;11.31;76.58
54270;BME280;40181;51.560;13.000;2023-05-02T04:48:04;100742.06;;;11.49;75.54
54270;BME280;40181;51.560;13.000;2023-05-02T04:50:33;100739.50;;;11.54;75.55
54270;BME280;40181;51.560;13.000;2023-05-02T04:53:02;100750.84;;;11.48;75.21
54270;BME280;40181;51.560;13.000;2023-05-02T04:55:31;100742.97;;;11.52;75.25
54270;BME280;40181;51.560;13.000;2023-05-02T04:58:00;100752.81;;;11.67;74.24
54270;BME280;40181;51.560;13.000;2023-05-02T05:00:32;100748.56;;;11.78;73.54
54270;BME280;40181;51.560;13.000;2023-05-02T05:03:02;100757.16;;;11.63;74.30
54270;BME280;40181;51.560;13.000;2023-05-02T05:05:31;100770.47;;;11.79;74.64
54270;BME280;40181;51.560;13.000;2023-05-02T05:08:00;100777.47;;;11.75;75.83
54270;BME280;40181;51.560;13.000;2023-05-02T05:10:30;100768.50;;;11.59;76.00
54270;BME280;40181;51.560;13.000;2023-05-02T05:12:59;100775.69;;;11.74;75.83
54270;BME280;40181;51.560;13.000;2023-05-02T05:15:28;100787.84;;;11.62;77.24
54270;BME280;40181;51.560;13.000;2023-05-02T05:18:00;100805.56;;;11.77;77.24
54270;BME280;40181;51.560;13.000;2023-05-02T05:20:29;100813.59;;;11.20;79.82
54270;BME280;40181;51.560;13.000;2023-05-02T05:22:58;100815.16;;;11.11;82.02
54270;BME280;40181;51.560;13.000;2023-05-02T05:25:27;100813.19;;;10.96;84.56
54270;BME280;40181;51.560;13.000;2023-05-02T05:27:58;100822.72;;;10.89;85.50
54270;BME280;40181;51.560;13.000;2023-05-02T05:30:27;100833.75;;;10.68;86.63
54270;BME280;40181;51.560;13.000;2023-05-02T05:32:57;100828.84;;;10.89;86.17
54270;BME280;40181;51.560;13.000;2023-05-02T05:35:28;100838.19;;;10.70;87.38
54270;BME280;40181;51.560;13.000;2023-05-02T05:37:57;100845.34;;;10.79;87.82
54270;BME280;40181;51.560;13.000;2023-05-02T05:40:27;100842.53;;;10.68;87.49
54270;BME280;40181;51.560;13.000;2023-05-02T05:42:56;100846.28;;;10.81;87.12
54270;BME280;40181;51.560;13.000;2023-05-02T05:45:25;100843.84;;;10.93;87.43
54270;BME280;40181;51.560;13.000;2023-05-02T05:47:54;100853.44;;;10.91;87.94
54270;BME280;40181;51.560;13.000;2023-05-02T05:50:25;100867.78;;;10.60;89.08
54270;BME280;40181;51.560;13.000;2023-05-02T05:52:54;100863.72;;;10.79;88.61
54270;BME280;40181;51.560;13.000;2023-05-02T05:55:26;100871.44;;;10.68;89.13
54270;BME280;40181;51.560;13.000;2023-05-02T05:57:55;100877.81;;;10.83;87.89
54270;BME280;40181;51.560;13.000;2023-05-02T06:00:24;100882.28;;;10.88;87.90
54270;BME280;40181;51.560;13.000;2023-05-02T06:02:53;100876.72;;;10.70;88.31
54270;BME280;40181;51.560;13.000;2023-05-02T06:05:25;100881.25;;;10.78;89.22
54270;BME280;40181;51.560;13.000;2023-05-02T06:07:54;100888.69;;;11.03;88.54
54270;BME280;40181;51.560;13.000;2023-05-02T06:10:24;100890.25;;;10.93;88.52
54270;BME280;40181;51.560;13.000;2023-05-02T06:12:53;100901.47;;;10.81;89.57
54270;BME280;40181;51.560;13.000;2023-05-02T06:18:33;100907.63;;;10.83;91.30
54270;BME280;40181;51.560;13.000;2023-05-02T06:21:06;100910.81;;;10.67;91.66
54270;BME280;40181;51.560;13.000;2023-05-02T06:23:35;100920.97;;;10.96;90.78
54270;BME280;40181;51.560;13.000;2023-05-02T06:26:05;100928.81;;;10.92;90.98
54270;BME280;40181;51.560;13.000;2023-05-02T06:28:34;100928.97;;;11.02;91.25
54270;BME280;40181;51.560;13.000;2023-05-02T06:31:04;100930.19;;;11.23;90.82
54270;BME280;40181;51.560;13.000;2023-05-02T06:33:34;100935.25;;;11.12;90.59
54270;BME280;40181;51.560;13.000;2023-05-02T06:36:06;100940.44;;;11.05;90.48
54270;BME280;40181;51.560;13.000;2023-05-02T06:38:35;100952.63;;;11.54;89.33
54270;BME280;40181;51.560;13.000;2023-05-02T06:41:05;100951.03;;;11.66;87.66
54270;BME280;40181;51.560;13.000;2023-05-02T06:43:34;100950.34;;;11.76;86.52
54270;BME280;40181;51.560;13.000;2023-05-02T06:46:03;100951.16;;;11.73;85.95
54270;BME280;40181;51.560;13.000;2023-05-02T06:48:32;100955.53;;;11.73;84.68
54270;BME280;40181;51.560;13.000;2023-05-02T06:51:03;100969.63;;;11.76;84.96
54270;BME280;40181;51.560;13.000;2023-05-02T06:53:35;100967.09;;;11.83;84.75
54270;BME280;40181;51.560;13.000;2023-05-02T06:56:04;100972.84;;;11.57;86.38
54270;BME280;40181;51.560;13.000;2023-05-02T06:58:34;100980.72;;;11.57;87.29
54270;BME280;40181;51.560;13.000;2023-05-02T07:01:03;100982.75;;;11.73;87.25
54270;BME280;40181;51.560;13.000;2023-05-02T07:03:32;101000.47;;;11.87;86.23
54270;BME280;40181;51.560;13.000;2023-05-02T07:06:01;100990.75;;;11.81;87.24
54270;BME280;40181;51.560;13.000;2023-05-02T07:08:33;101000.53;;;11.88;86.09
54270;BME280;40181;51.560;13.000;2023-05-02T07:11:02;101003.63;;;11.62;87.94
54270;BME280;40181;51.560;13.000;2023-05-02T07:13:31;101011.41;;;11.56;87.06
54270;BME280;40181;51.560;13.000;2023-05-02T07:16:00;101001.50;;;11.40;87.66
54270;BME280;40181;51.560;13.000;2023-05-02T07:18:29;101003.72;;;11.69;86.56
54270;BME280;40181;51.560;13.000;2023-05-02T07:20:58;101005.53;;;11.73;86.31
54270;BME280;40181;51.560;13.000;2023-05-02T07:23:28;101012.66;;;11.80;86.12
54270;BME280;40181;51.560;13.000;2023-05-02T07:25:59;101019.53;;;11.70;86.71
54270;BME280;40181;51.560;13.000;2023-05-02T07:28:29;101026.59;;;11.71;87.63
54270;BME280;40181;51.560;13.000;2023-05-02T07:30:58;101026.81;;;11.87;89.14
54270;BME280;40181;51.560;13.000;2023-05-02T07:33:28;101024.28;;;11.93;90.18
54270;BME280;40181;51.560;13.000;2023-05-02T07:35:57;101025.69;;;11.71;93.23
54270;BME280;40181;51.560;13.000;2023-05-02T07:38:26;101023.06;;;11.71;92.69
54270;BME280;40181;51.560;13.000;2023-05-02T07:40:59;101034.50;;;11.71;94.62
54270;BME280;40181;51.560;13.000;2023-05-02T07:43:28;101034.34;;;11.62;94.49
54270;BME280;40181;51.560;13.000;2023-05-02T07:46:02;101034.41;;;11.67;95.63
54270;BME280;40181;51.560;13.000;2023-05-02T07:48:32;101047.50;;;11.63;95.42
54270;BME280;40181;51.560;13.000;2023-05-02T07:51:05;101045.66;;;11.58;94.44
54270;BME280;40181;51.560;13.000;2023-05-02T07:53:34;101055.00;;;11.94;93.60
54270;BME280;40181;51.560;13.000;2023-05-02T07:56:07;101048.94;;;11.98;92.14
54270;BME280;40181;51.560;13.000;2023-05-02T07:58:37;101051.88;;;11.63;92.96
54270;BME280;40181;51.560;13.000;2023-05-02T08:01:06;101066.84;;;11.67;92.23
54270;BME280;40181;51.560;13.000;2023-05-02T08:03:35;101076.94;;;11.93;92.53
54270;BME280;40181;51.560;13.000;2023-05-02T08:06:05;101062.22;;;12.03;91.90
54270;BME280;40181;51.560;13.000;2023-05-02T08:08:34;101077.91;;;11.98;92.47
54270;BME280;40181;51.560;13.000;2023-05-02T08:11:06;101079.47;;;11.87;91.02
54270;BME280;40181;51.560;13.000;2023-05-02T08:13:35;101084.63;;;11.79;92.17
54270;BME280;40181;51.560;13.000;2023-05-02T08:16:04;101090.94;;;11.89;91.64
54270;BME280;40181;51.560;13.000;2023-05-02T08:18:33;101099.56;;;11.82;92.24
54270;BME280;40181;51.560;13.000;2023-05-02T08:21:03;101096.56;;;11.60;91.83
54270;BME280;40181;51.560;13.000;2023-05-02T08:23:32;101102.16;;;11.80;92.00
54270;BME280;40181;51.560;13.000;2023-05-02T08:26:02;101099.81;;;11.96;92.25
54270;BME280;40181;51.560;13.000;2023-05-02T08:28:34;101100.66;;;11.96;92.03
54270;BME280;40181;51.560;13.000;2023-05-02T08:31:03;101106.84;;;11.97;91.44
54270;BME280;40181;51.560;13.000;2023-05-02T08:33:32;101119.66;;;11.76;91.72
54270;BME280;40181;51.560;13.000;2023-05-02T08:36:09;101104.69;;;11.72;91.58
54270;BME280;40181;51.560;13.000;2023-05-02T08:38:39;101117.59;;;11.58;91.96
54270;BME280;40181;51.560;13.000;2023-05-02T08:41:13;101108.84;;;11.59;92.01
54270;BME280;40181;51.560;13.000;2023-05-02T08:43:43;101111.75;;;11.76;92.11
54270;BME280;40181;51.560;13.000;2023-05-02T08:46:14;101119.69;;;11.78;91.14
54270;BME280;40181;51.560;13.000;2023-05-02T08:48:45;101117.03;;;11.76;91.77
54270;BME280;40181;51.560;13.000;2023-05-02T08:51:16;101121.53;;;11.84;91.38
54270;BME280;40181;51.560;13.000;2023-05-02T08:53:45;101114.47;;;11.80;90.20
54270;BME280;40181;51.560;13.000;2023-05-02T08:56:17;101116.66;;;12.04;89.56
54270;BME280;40181;51.560;13.000;2023-05-02T08:58:46;101103.34;;;12.55;87.99
54270;BME280;40181;51.560;13.000;2023-05-02T09:01:17;101120.66;;;12.36;87.15
54270;BME280;40181;51.560;13.000;2023-05-02T09:03:49;101113.34;;;12.81;85.40
54270;BME280;40181;51.560;13.000;2023-05-02T09:06:20;101133.66;;;12.85;85.36
54270;BME280;40181;51.560;13.000;2023-05-02T09:08:50;101146.38;;;12.52;85.08
54270;BME280;40181;51.560;13.000;2023-05-02T09:11:22;101143.34;;;12.89;82.61
54270;BME280;40181;51.560;13.000;2023-05-02T09:13:51;101151.47;;;13.05;82.99
54270;BME280;40181;51.560;13.000;2023-05-02T09:16:25;101147.84;;;12.96;81.55
54270;BME280;40181;51.560;13.000;2023-05-02T09:18:56;101157.13;;;12.68;83.78
54270;BME280;40181;51.560;13.000;2023-05-02T09:21:34;101160.97;;;12.92;82.50
54270;BME280;40181;51.560;13.000;2023-05-02T09:24:14;101157.25;;;12.76;82.46
54270;BME280;40181;51.560;13.000;2023-05-02T09:26:56;101171.94;;;12.59;83.16
54270;BME280;40181;51.560;13.000;2023-05-02T09:29:27;101171.00;;;12.54;83.33
54270;BME280;40181;51.560;13.000;2023-05-02T09:32:00;101166.53;;;12.50;84.03
54270;BME280;40181;51.560;13.000;2023-05-02T09:34:29;101178.13;;;12.62;83.47
54270;BME280;40181;51.560;13.000;2023-05-02T09:36:58;101181.72;;;12.67;84.80
54270;BME280;40181;51.560;13.000;2023-05-02T09:39:29;101175.56;;;12.66;84.39
54270;BME280;40181;51.560;13.000;2023-05-02T09:42:01;101173.66;;;12.57;85.00
54270;BME280;40181;51.560;13.000;2023-05-02T09:44:36;101173.06;;;12.77;83.87
54270;BME280;40181;51.560;13.000;2023-05-02T09:47:06;101176.56;;;12.75;83.96
54270;BME280;40181;51.560;13.000;2023-05-02T09:49:40;101174.78;;;12.73;85.35
54270;BME280;40181;51.560;13.000;2023-05-02T09:52:10;101185.47;;;12.84;84.45
54270;BME280;40181;51.560;13.000;2023-05-02T09:54:40;101189.78;;;12.78;84.12
54270;BME280;40181;51.560;13.000;2023-05-02T09:57:13;101194.66;;;12.50;85.30
54270;BME280;40181;51.560;13.000;2023-05-02T09:59:52;101193.41;;;12.86;83.64
54270;BME280;40181;51.560;13.000;2023-05-02T10:02:23;101200.06;;;12.59;83.28
54270;BME280;40181;51.560;13.000;2023-05-02T10:04:52;101197.53;;;12.65;83.13
54270;BME280;40181;51.560;13.000;2023-05-02T10:07:25;101206.31;;;12.66;83.45
54270;BME280;40181;51.560;13.000;2023-05-02T10:09:57;101198.50;;;12.72;83.08
54270;BME280;40181;51.560;13.000;2023-05-02T10:12:32;101198.53;;;12.75;82.44
54270;BME280;40181;51.560;13.000;2023-05-02T10:15:03;101202.19;;;12.86;82.83
54270;BME280;40181;51.560;13.000;2023-05-02T10:17:38;101205.88;;;12.96;82.50
54270;BME280;40181;51.560;13.000;2023-05-02T10:20:10;101199.25;;;13.28;82.08
54270;BME280;40181;51.560;13.000;2023-05-02T10:22:46;101200.16;;;13.32;80.67
54270;BME280;40181;51.560;13.000;2023-05-02T10:25:18;101205.16;;;13.81;79.97
54270;BME280;40181;51.560;13.000;2023-05-02T10:27:49;101193.56;;;13.66;79.49
54270;BME280;40181;51.560;13.000;2023-05-02T10:30:19;101199.13;;;13.94;78.39
54270;BME280;40181;51.560;13.000;2023-05-02T10:32:50;101182.53;;;14.08;78.14
54270;BME280;40181;51.560;13.000;2023-05-02T10:35:20;101184.47;;;14.31;76.19
54270;BME280;40181;51.560;13.000;2023-05-02T10:37:51;101189.47;;;13.96;78.40
54270;BME280;40181;51.560;13.000;2023-05-02T10:40:20;101192.22;;;14.12;77.86
54270;BME280;40181;51.560;13.000;2023-05-02T10:42:52;101199.84;;;13.79;78.92
54270;BME280;40181;51.560;13.000;2023-05-02T10:45:33;101192.72;;;13.72;80.38
54270;BME280;40181;51.560;13.000;2023-05-02T10:48:13;101192.00;;;13.86;80.85
54270;BME280;40181;51.560;13.000;2023-05-02T10:50:45;101196.47;;;13.94;78.72
54270;BME280;40181;51.560;13.000;2023-05-02T10:53:26;101199.19;;;14.04;77.22
54270;BME280;40181;51.560;13.000;2023-05-02T10:56:13;101196.50;;;13.96;77.61
54270;BME280;40181;51.560;13.000;2023-05-02T10:58:49;101197.31;;;13.90;77.27
54270;BME280;40181;51.560;13.000;2023-05-02T11:01:31;101206.06;;;13.83;78.04
54270;BME280;40181;51.560;13.000;2023-05-02T11:04:04;101206.25;;;14.00;78.04
54270;BME280;40181;51.560;13.000;2023-05-02T11:06:34;101195.75;;;14.09;76.70
54270;BME280;40181;51.560;13.000;2023-05-02T11:09:32;101190.84;;;14.59;75.07
54270;BME280;40181;51.560;13.000;2023-05-02T11:12:01;101194.59;;;14.94;73.77
54270;BME280;40181;51.560;13.000;2023-05-02T11:14:48;101192.69;;;14.68;74.38
54270;BME280;40181;51.560;13.000;2023-05-02T11:17:18;101189.25;;;14.85;73.70
54270;BME280;40181;51.560;13.000;2023-05-02T11:22:58;101189.34;;;14.96;69.07
54270;BME280;40181;51.560;13.000;2023-05-02T11:25:50;101192.75;;;14.74;68.03
54270;BME280;40181;51.560;13.000;2023-05-02T11:28:42;101188.38;;;14.83;69.10
54270;BME280;40181;51.560;13.000;2023-05-02T11:34:41;101188.53;;;15.15;70.41
54270;BME280;40181;51.560;13.000;2023-05-02T11:37:11;101188.50;;;15.06;70.48
54270;BME280;40181;51.560;13.000;2023-05-02T11:39:41;101183.25;;;15.17;71.03
54270;BME280;40181;51.560;13.000;2023-05-02T11:42:26;101192.94;;;15.16;71.09
54270;BME280;40181;51.560;13.000;2023-05-02T11:44:57;101178.53;;;14.63;72.59
54270;BME280;40181;51.560;13.000;2023-05-02T11:47:31;101182.19;;;14.77;71.64
54270;BME280;40181;51.560;13.000;2023-05-02T11:50:03;101192.88;;;14.99;71.34
54270;BME280;40181;51.560;13.000;2023-05-02T11:52:36;101183.28;;;15.20;69.22
54270;BME280;40181;51.560;13.000;2023-05-02T11:55:06;101195.63;;;15.21;69.45
54270;BME280;40181;51.560;13.000;2023-05-02T11:57:38;101200.69;;;14.73;71.30
54270;BME280;40181;51.560;13.000;2023-05-02T12:00:09;101200.78;;;14.93;71.54
54270;BME280;40181;51.560;13.000;2023-05-02T12:02:43;101198.22;;;15.08;68.87
54270;BME280;40181;51.560;13.000;2023-05-02T12:05:14;101205.41;;;15.36;68.39
54270;BME280;40181;51.560;13.000;2023-05-02T12:07:49;101194.94;;;15.81;70.03
54270;BME280;40181;51.560;13.000;2023-05-02T12:10:18;101196.69;;;15.74;69.98
54270;BME280;40181;51.560;13.000;2023-05-02T12:12:47;101193.13;;;15.58;67.58
54270;BME280;40181;51.560;13.000;2023-05-02T12:15:17;101199.25;;;15.48;68.79
54270;BME280;40181;51.560;13.000;2023-05-02T12:17:49;101207.19;;;15.45;70.03
54270;BME280;40181;51.560;13.000;2023-05-02T12:20:18;101210.59;;;15.11;70.79
54270;BME280;40181;51.560;13.000;2023-05-02T12:22:48;101218.50;;;15.10;68.31
54270;BME280;40181;51.560;13.000;2023-05-02T12:25:17;101219.22;;;14.77;67.78
54270;BME280;40181;51.560;13.000;2023-05-02T12:27:59;101233.16;;;14.59;71.27
54270;BME280;40181;51.560;13.000;2023-05-02T12:30:29;101239.88;;;14.20;76.47
54270;BME280;40181;51.560;13.000;2023-05-02T12:33:01;101245.81;;;13.97;78.62
54270;BME280;40181;51.560;13.000;2023-05-02T12:35:31;101255.81;;;13.47;80.83
54270;BME280;40181;51.560;13.000;2023-05-02T12:38:09;101278.94;;;13.05;81.41
54270;BME280;40181;51.560;13.000;2023-05-02T12:40:45;101269.38;;;13.10;82.17
54270;BME280;40181;51.560;13.000;2023-05-02T12:43:16;101260.19;;;13.47;81.47
54270;BME280;40181;51.560;13.000;2023-05-02T12:45:46;101266.41;;;12.90;83.39
54270;BME280;40181;51.560;13.000;2023-05-02T12:48:22;101281.44;;;12.96;83.53
54270;BME280;40181;51.560;13.000;2023-05-02T12:50:53;101279.03;;;13.11;83.67
54270;BME280;40181;51.560;13.000;2023-05-02T12:53:38;101283.31;;;13.02;83.99
54270;BME280;40181;51.560;13.000;2023-05-02T12:56:08;101286.22;;;13.22;83.38
54270;BME280;40181;51.560;13.000;2023-05-02T12:58:45;101291.38;;;13.11;83.80
54270;BME280;40181;51.560;13.000;2023-05-02T13:01:15;101296.50;;;13.02;83.67
54270;BME280;40181;51.560;13.000;2023-05-02T13:03:49;101292.03;;;12.97;83.92
54270;BME280;40181;51.560;13.000;2023-05-02T13:06:18;101305.66;;;12.68;86.11
54270;BME280;40181;51.560;13.000;2023-05-02T13:08:48;101300.75;;;12.92;84.82
54270;BME280;40181;51.560;13.000;2023-05-02T13:11:17;101301.72;;;12.98;84.28
54270;BME280;40181;51.560;13.000;2023-05-02T13:13:46;101304.56;;;13.11;83.71